createdAt,value
2023-04-09T00:02:02.944Z,12.20
2023-04-09T00:04:31.206Z,12.07
2023-04-09T00:06:59.272Z,11.45
2023-04-09T00:09:26.868Z,10.90
2023-04-09T00:11:55.992Z,12.70
2023-04-09T00:14:24.233Z,12.93
2023-04-09T00:16:51.791Z,13.77
2023-04-09T00:19:19.853Z,13.02
2023-04-09T00:21:47.547Z,12.88
2023-04-09T00:24:15.199Z,12.98
2023-04-09T00:26:42.906Z,12.43
2023-04-09T00:29:12.010Z,12.43
2023-04-09T00:31:39.573Z,13.65
2023-04-09T00:34:07.389Z,18.05
2023-04-09T00:36:36.345Z,24.83
2023-04-09T00:39:03.996Z,26.40
2023-04-09T00:41:34.973Z,30.45
2023-04-09T00:44:02.652Z,30.25
2023-04-09T00:46:34.990Z,16.02
2023-04-09T00:49:02.666Z,12.15
2023-04-09T00:51:30.362Z,13.40
2023-04-09T00:53:58.231Z,11.88
2023-04-09T00:56:27.176Z,11.45
2023-04-09T00:58:55.720Z,12.38
2023-04-09T01:01:23.708Z,18.35
2023-04-09T01:03:54.084Z,22.25
2023-04-09T01:06:28.300Z,12.50
2023-04-09T01:09:03.825Z,12.32
2023-04-09T01:11:42.473Z,11.73
2023-04-09T01:14:20.912Z,12.32
2023-04-09T01:16:55.880Z,10.25
2023-04-09T01:19:41.946Z,11.57
2023-04-09T01:22:25.481Z,11.27
2023-04-09T01:25:04.468Z,12.38
2023-04-09T01:27:43.959Z,15.45
2023-04-09T01:30:15.912Z,10.70
2023-04-09T01:32:44.520Z,11.50
2023-04-09T01:35:13.929Z,11.20
2023-04-09T01:37:42.274Z,11.70
2023-04-09T01:40:11.596Z,11.40
2023-04-09T01:42:41.197Z,11.63
2023-04-09T01:45:11.218Z,11.23
2023-04-09T01:47:40.840Z,12.70
2023-04-09T01:50:09.453Z,11.25
2023-04-09T01:52:37.358Z,12.45
2023-04-09T01:55:06.029Z,11.85
2023-04-09T01:57:33.710Z,11.95
2023-04-09T02:00:04.956Z,12.07
2023-04-09T02:02:42.933Z,11.50
2023-04-09T02:05:18.584Z,11.85
2023-04-09T02:07:52.892Z,12.23
2023-04-09T02:10:24.429Z,11.45
2023-04-09T02:12:53.514Z,12.85
2023-04-09T02:15:22.403Z,11.75
2023-04-09T02:17:51.194Z,12.73
2023-04-09T02:20:20.437Z,12.85
2023-04-09T02:22:48.227Z,12.02
2023-04-09T02:25:15.826Z,12.45
2023-04-09T02:27:43.618Z,11.27
2023-04-09T02:30:12.002Z,12.05
2023-04-09T02:32:39.754Z,11.65
2023-04-09T02:35:08.461Z,11.75
2023-04-09T02:37:39.456Z,13.45
2023-04-09T02:40:07.996Z,10.88
2023-04-09T02:42:35.921Z,11.40
2023-04-09T02:45:03.804Z,11.38
2023-04-09T02:47:39.024Z,11.00
2023-04-09T02:50:07.980Z,17.23
2023-04-09T02:52:35.629Z,19.15
2023-04-09T02:55:05.634Z,15.25
2023-04-09T02:57:33.755Z,14.50
2023-04-09T03:00:01.818Z,12.13
2023-04-09T03:02:29.870Z,12.52
2023-04-09T03:04:57.683Z,12.80
2023-04-09T03:07:25.275Z,12.85
2023-04-09T03:09:52.987Z,12.13
2023-04-09T03:12:22.740Z,14.82
2023-04-09T03:14:50.321Z,15.05
2023-04-09T03:17:18.215Z,15.48
2023-04-09T03:19:46.944Z,14.60
2023-04-09T03:22:14.480Z,13.63
2023-04-09T03:24:42.287Z,15.10
2023-04-09T03:27:10.307Z,14.50
2023-04-09T03:29:46.568Z,13.02
2023-04-09T03:32:15.963Z,14.50
2023-04-09T03:34:44.869Z,14.30
2023-04-09T03:37:12.474Z,13.88
2023-04-09T03:39:40.684Z,16.42
2023-04-09T03:42:12.310Z,14.73
2023-04-09T03:44:40.072Z,15.20
2023-04-09T03:47:09.222Z,19.50
2023-04-09T03:49:37.337Z,17.73
2023-04-09T03:52:06.563Z,16.08
2023-04-09T03:54:34.557Z,15.30
2023-04-09T03:57:02.306Z,19.17
2023-04-09T03:59:32.929Z,17.90
2023-04-09T04:02:10.134Z,14.02
2023-04-09T04:04:38.132Z,13.18
2023-04-09T04:07:06.403Z,12.93
2023-04-09T04:09:37.011Z,14.00
2023-04-09T04:12:04.906Z,13.38
2023-04-09T04:14:35.797Z,14.27
2023-04-09T04:17:03.406Z,13.52
2023-04-09T04:19:32.408Z,13.40
2023-04-09T04:22:00.268Z,12.82
2023-04-09T04:24:28.456Z,13.45
2023-04-09T04:26:55.974Z,12.68
2023-04-09T04:29:24.060Z,13.50
2023-04-09T04:31:52.134Z,13.38
2023-04-09T04:34:19.732Z,12.88
2023-04-09T04:36:49.225Z,12.30
2023-04-09T04:39:18.473Z,12.80
2023-04-09T04:41:46.657Z,11.45
2023-04-09T04:44:14.528Z,13.50
2023-04-09T04:46:42.162Z,11.80
2023-04-09T04:49:11.114Z,11.77
2023-04-09T04:51:38.938Z,13.57
2023-04-09T04:54:08.342Z,12.27
2023-04-09T04:56:36.006Z,11.68
2023-04-09T04:59:08.086Z,11.82
2023-04-09T05:01:35.830Z,11.05
2023-04-09T05:04:04.417Z,10.73
2023-04-09T05:06:32.312Z,11.18
2023-04-09T05:08:59.874Z,11.57
2023-04-09T05:11:31.724Z,11.65
2023-04-09T05:14:02.433Z,11.05
2023-04-09T05:16:30.740Z,11.65
2023-04-09T05:18:58.330Z,11.90
2023-04-09T05:21:26.051Z,11.50
2023-04-09T05:23:55.850Z,10.43
2023-04-09T05:26:23.988Z,10.98
2023-04-09T05:28:54.084Z,11.90
2023-04-09T05:31:25.084Z,10.52
2023-04-09T05:33:52.644Z,11.55
2023-04-09T05:36:20.880Z,11.52
2023-04-09T05:38:55.912Z,12.40
2023-04-09T05:41:24.265Z,12.48
2023-04-09T05:43:53.454Z,20.20
2023-04-09T05:46:25.535Z,11.38
2023-04-09T05:48:53.589Z,11.18
2023-04-09T05:51:21.638Z,10.88
2023-04-09T05:53:50.040Z,10.75
2023-04-09T05:56:19.067Z,10.35
2023-04-09T05:58:46.626Z,12.52
2023-04-09T06:01:17.136Z,17.67
2023-04-09T06:03:45.016Z,10.35
2023-04-09T06:06:13.203Z,9.57
2023-04-09T06:08:41.745Z,9.38
2023-04-09T06:11:09.872Z,10.27
2023-04-09T06:13:37.456Z,10.07
2023-04-09T06:16:16.330Z,9.77
2023-04-09T06:18:44.591Z,11.27
2023-04-09T06:21:12.168Z,11.32
2023-04-09T06:23:40.737Z,9.40
2023-04-09T06:26:09.085Z,9.82
2023-04-09T06:28:36.633Z,8.55
2023-04-09T06:31:04.418Z,9.32
2023-04-09T06:33:34.463Z,9.57
2023-04-09T06:36:02.032Z,9.93
2023-04-09T06:38:29.937Z,9.30
2023-04-09T06:40:57.698Z,9.48
2023-04-09T06:43:28.845Z,9.85
2023-04-09T06:45:58.397Z,8.25
2023-04-09T06:48:26.108Z,8.57
2023-04-09T06:50:55.898Z,9.00
2023-04-09T06:53:24.079Z,9.00
2023-04-09T06:55:54.444Z,8.68
2023-04-09T06:58:24.247Z,9.32
2023-04-09T07:00:52.222Z,9.80
2023-04-09T07:03:28.306Z,8.82
2023-04-09T07:05:58.648Z,8.32
2023-04-09T07:08:26.356Z,9.07
2023-04-09T07:11:02.264Z,8.80
2023-04-09T07:13:34.432Z,8.70
2023-04-09T07:16:02.116Z,8.38
2023-04-09T07:18:32.013Z,7.60
2023-04-09T07:21:03.347Z,6.97
2023-04-09T07:23:34.979Z,7.67
2023-04-09T07:26:04.534Z,7.00
2023-04-09T07:28:33.534Z,7.22
2023-04-09T07:31:01.924Z,6.97
2023-04-09T07:33:49.393Z,6.65
2023-04-09T07:36:19.305Z,5.65
2023-04-09T07:38:46.963Z,13.32
2023-04-09T07:41:17.484Z,6.63
2023-04-09T07:43:46.110Z,6.10
2023-04-09T07:46:19.056Z,6.35
2023-04-09T07:48:48.482Z,5.35
2023-04-09T07:51:20.800Z,5.55
2023-04-09T07:53:53.806Z,4.75
2023-04-09T07:56:21.749Z,5.78
2023-04-09T07:58:49.525Z,6.07
2023-04-09T08:01:19.893Z,4.90
2023-04-09T08:03:48.172Z,5.13
2023-04-09T08:06:16.076Z,5.22
2023-04-09T08:08:46.114Z,3.78
2023-04-09T08:11:16.609Z,4.18
2023-04-09T08:13:44.305Z,5.00
2023-04-09T08:16:15.555Z,6.28
2023-04-09T08:18:43.103Z,4.38
2023-04-09T08:21:11.032Z,5.10
2023-04-09T08:23:38.890Z,4.90
2023-04-09T08:26:08.977Z,4.65
2023-04-09T08:28:39.821Z,4.88
2023-04-09T08:33:37.209Z,5.00
2023-04-09T08:36:08.819Z,4.60
2023-04-09T08:38:37.085Z,5.15
2023-04-09T08:41:05.835Z,4.88
2023-04-09T08:43:53.192Z,4.30
2023-04-09T08:46:24.885Z,5.22
2023-04-09T08:48:53.410Z,4.55
2023-04-09T08:51:23.612Z,4.28
2023-04-09T08:53:56.376Z,6.80
2023-04-09T08:56:24.612Z,5.93
2023-04-09T08:58:55.139Z,4.80
2023-04-09T09:01:24.589Z,5.40
2023-04-09T09:03:55.699Z,9.93
2023-04-09T09:06:27.029Z,5.75
2023-04-09T09:09:10.388Z,5.10
2023-04-09T09:11:40.172Z,5.05
2023-04-09T09:14:12.264Z,5.22
2023-04-09T09:17:06.616Z,5.22
2023-04-09T09:19:34.660Z,4.80
2023-04-09T09:22:05.173Z,5.15
2023-04-09T09:24:33.992Z,5.00
2023-04-09T09:27:01.904Z,5.38
2023-04-09T09:29:31.227Z,5.55
2023-04-09T09:31:58.998Z,6.30
2023-04-09T09:34:28.947Z,5.22
2023-04-09T09:36:57.541Z,5.78
2023-04-09T09:39:43.431Z,5.53
2023-04-09T09:42:11.320Z,5.68
2023-04-09T09:44:41.835Z,5.35
2023-04-09T09:47:12.246Z,5.90
2023-04-09T09:49:40.229Z,5.57
2023-04-09T09:52:10.228Z,6.28
2023-04-09T09:54:41.542Z,6.32
2023-04-09T09:57:10.527Z,5.53
2023-04-09T09:59:48.021Z,5.60
2023-04-09T10:02:20.877Z,5.47
2023-04-09T10:04:50.358Z,5.72
2023-04-09T10:07:21.875Z,5.78
2023-04-09T10:09:53.095Z,8.85
2023-04-09T10:12:22.233Z,5.10
2023-04-09T10:14:51.745Z,5.45
2023-04-09T10:17:20.162Z,8.60
2023-04-09T10:19:56.060Z,6.70
2023-04-09T10:22:27.176Z,6.25
2023-04-09T10:24:55.376Z,5.13
2023-04-09T10:27:23.563Z,20.55
2023-04-09T10:29:52.694Z,75.90
2023-04-09T10:32:22.838Z,9.55
2023-04-09T10:35:10.501Z,6.90
2023-04-09T10:37:48.667Z,6.03
2023-04-09T10:40:21.614Z,4.95
2023-04-09T10:42:50.354Z,4.30
2023-04-09T10:45:24.842Z,3.92
2023-04-09T10:47:54.080Z,4.88
2023-04-09T10:50:26.209Z,3.65
2023-04-09T10:52:56.708Z,4.07
2023-04-09T10:55:36.202Z,3.28
2023-04-09T10:58:13.270Z,3.40
2023-04-09T11:00:48.150Z,4.03
2023-04-09T11:03:23.356Z,3.55
2023-04-09T11:06:02.440Z,4.47
2023-04-09T11:08:31.797Z,4.22
2023-04-09T11:11:02.303Z,4.63
2023-04-09T11:13:31.767Z,4.85
2023-04-09T11:16:06.866Z,4.78
2023-04-09T11:18:46.827Z,3.92
2023-04-09T11:21:20.015Z,4.18
2023-04-09T11:23:52.207Z,4.13
2023-04-09T11:26:34.995Z,3.95
2023-04-09T11:29:07.274Z,3.47
2023-04-09T11:31:44.964Z,3.78
2023-04-09T11:34:32.540Z,3.53
2023-04-09T11:37:02.070Z,3.10
2023-04-09T11:39:31.074Z,3.78
2023-04-09T11:41:59.895Z,4.78
2023-04-09T11:44:45.365Z,3.58
2023-04-09T11:47:32.082Z,3.22
2023-04-09T11:50:03.124Z,3.58
2023-04-09T11:52:37.346Z,3.83
2023-04-09T11:55:11.482Z,4.00
2023-04-09T11:57:47.238Z,3.40
2023-04-09T12:00:17.361Z,3.10
2023-04-09T12:03:03.129Z,3.60
2023-04-09T12:05:50.583Z,3.58
2023-04-09T12:08:23.791Z,4.07
2023-04-09T12:11:08.607Z,4.18
2023-04-09T12:13:43.723Z,4.30
2023-04-09T12:16:15.128Z,4.40
2023-04-09T12:19:03.343Z,4.25
2023-04-09T12:21:46.183Z,4.65
2023-04-09T12:24:16.102Z,4.30
2023-04-09T12:26:48.521Z,4.50
2023-04-09T12:29:19.100Z,10.43
2023-04-09T12:31:51.108Z,8.52
2023-04-09T12:34:21.624Z,5.88
2023-04-09T12:36:55.364Z,6.68
2023-04-09T12:39:24.125Z,5.95
2023-04-09T12:44:23.123Z,4.63
2023-04-09T12:46:54.783Z,3.90
2023-04-09T12:49:24.073Z,3.75
2023-04-09T12:51:51.626Z,4.28
2023-04-09T12:54:21.764Z,11.68
2023-04-09T12:56:50.811Z,3.53
2023-04-09T12:59:22.695Z,3.95
2023-04-09T13:01:51.158Z,4.45
2023-04-09T13:04:18.789Z,3.30
2023-04-09T13:06:48.460Z,3.55
2023-04-09T13:09:16.535Z,3.53
2023-04-09T13:11:44.417Z,3.58
2023-04-09T13:14:14.341Z,4.00
2023-04-09T13:16:42.423Z,4.75
2023-04-09T13:19:16.221Z,4.50
2023-04-09T13:21:46.237Z,4.82
2023-04-09T13:24:16.703Z,4.97
2023-04-09T13:26:44.817Z,4.93
2023-04-09T13:29:12.537Z,4.95
2023-04-09T13:31:43.276Z,5.30
2023-04-09T13:34:18.501Z,4.63
2023-04-09T13:36:50.697Z,5.25
2023-04-09T13:39:20.783Z,4.72
2023-04-09T13:41:51.040Z,5.20
2023-04-09T13:44:19.131Z,8.48
2023-04-09T13:46:47.577Z,7.47
2023-04-09T13:49:16.072Z,5.95
2023-04-09T13:51:44.510Z,4.53
2023-04-09T13:54:12.972Z,4.57
2023-04-09T13:56:42.343Z,4.88
2023-04-09T13:59:12.609Z,4.65
2023-04-09T14:01:40.303Z,5.32
2023-04-09T14:04:08.363Z,6.93
2023-04-09T14:06:37.584Z,6.20
2023-04-09T14:09:05.487Z,5.95
2023-04-09T14:11:33.923Z,4.63
2023-04-09T14:14:04.870Z,4.22
2023-04-09T14:16:32.574Z,4.40
2023-04-09T14:19:03.248Z,7.43
2023-04-09T14:21:33.954Z,10.65
2023-04-09T14:24:01.685Z,11.52
2023-04-09T14:26:29.475Z,10.10
2023-04-09T14:28:57.325Z,16.38
2023-04-09T14:31:34.548Z,17.60
2023-04-09T14:34:08.220Z,8.30
2023-04-09T14:36:38.504Z,11.05
2023-04-09T14:39:10.030Z,9.75
2023-04-09T14:41:46.505Z,9.82
2023-04-09T14:44:15.828Z,9.98
2023-04-09T14:46:45.595Z,7.93
2023-04-09T14:49:15.945Z,6.72
2023-04-09T14:51:45.115Z,9.27
2023-04-09T14:54:14.262Z,7.75
2023-04-09T14:56:46.751Z,7.55
2023-04-09T14:59:16.347Z,21.42
2023-04-09T15:01:53.327Z,9.57
2023-04-09T15:04:33.602Z,10.93
2023-04-09T15:07:02.153Z,8.63
2023-04-09T15:09:30.052Z,8.02
2023-04-09T15:11:58.080Z,6.40
2023-04-09T15:14:34.038Z,6.47
2023-04-09T15:17:12.323Z,6.47
2023-04-09T15:19:41.546Z,5.75
2023-04-09T15:22:16.570Z,7.32
2023-04-09T15:24:58.119Z,6.75
2023-04-09T15:27:26.020Z,6.13
2023-04-09T15:29:54.686Z,6.85
2023-04-09T15:32:25.305Z,8.55
2023-04-09T15:34:56.566Z,9.15
2023-04-09T15:37:30.437Z,9.77
2023-04-09T15:39:58.135Z,11.63
2023-04-09T15:42:26.125Z,10.65
2023-04-09T15:44:55.382Z,13.88
2023-04-09T15:47:25.483Z,10.95
2023-04-09T15:49:59.519Z,11.75
2023-04-09T15:52:27.534Z,10.02
2023-04-09T15:54:56.322Z,12.02
2023-04-09T15:57:27.118Z,13.60
2023-04-09T15:59:54.988Z,8.40
2023-04-09T16:02:26.313Z,13.93
2023-04-09T16:04:57.076Z,19.38
2023-04-09T16:07:24.806Z,16.00
2023-04-09T16:09:54.848Z,25.10
2023-04-09T16:12:26.370Z,22.23
2023-04-09T16:15:08.441Z,16.10
2023-04-09T16:17:40.673Z,16.98
2023-04-09T16:20:09.570Z,16.00
2023-04-09T16:22:41.030Z,9.77
2023-04-09T16:25:10.006Z,6.57
2023-04-09T16:27:43.682Z,5.50
2023-04-09T16:30:12.282Z,5.63
2023-04-09T16:32:48.688Z,8.98
2023-04-09T16:35:21.301Z,10.80
2023-04-09T16:38:02.712Z,11.43
2023-04-09T16:40:46.475Z,15.90
2023-04-09T16:43:18.384Z,16.63
2023-04-09T16:45:49.726Z,16.88
2023-04-09T16:48:37.502Z,26.58
2023-04-09T16:51:13.082Z,16.95
2023-04-09T16:53:45.425Z,14.88
2023-04-09T16:56:20.975Z,15.38
2023-04-09T16:58:48.924Z,16.58
2023-04-09T17:01:20.947Z,16.42
2023-04-09T17:03:51.329Z,14.18
2023-04-09T17:06:19.441Z,15.75
2023-04-09T17:08:51.226Z,16.27
2023-04-09T17:11:20.249Z,16.27
2023-04-09T17:13:55.100Z,21.48
2023-04-09T17:16:25.610Z,22.52
2023-04-09T17:18:55.104Z,22.35
2023-04-09T17:21:27.547Z,32.33
2023-04-09T17:24:04.888Z,31.38
2023-04-09T17:26:34.179Z,30.67
2023-04-09T17:29:01.917Z,39.70
2023-04-09T17:31:31.932Z,40.80
2023-04-09T17:34:21.069Z,45.03
2023-04-09T17:36:49.465Z,40.53
2023-04-09T17:39:19.094Z,40.22
2023-04-09T17:41:47.953Z,46.55
2023-04-09T17:44:23.972Z,57.53
2023-04-09T17:46:55.224Z,51.55
2023-04-09T17:49:25.469Z,48.22
2023-04-09T17:51:56.753Z,39.65
2023-04-09T17:54:32.886Z,35.63
2023-04-09T17:57:10.555Z,38.08
2023-04-09T17:59:48.384Z,40.17
2023-04-09T18:02:18.202Z,33.08
2023-04-09T18:04:53.738Z,33.03
2023-04-09T18:07:21.702Z,33.92
2023-04-09T18:09:52.230Z,35.93
2023-04-09T18:12:20.788Z,34.95
2023-04-09T18:14:59.873Z,36.38
2023-04-09T18:17:27.629Z,36.10
2023-04-09T18:19:57.144Z,35.95
2023-04-09T18:22:25.353Z,35.50
2023-04-09T18:24:53.232Z,33.83
2023-04-09T18:27:21.199Z,34.72
2023-04-09T18:29:50.702Z,34.67
2023-04-09T18:32:18.613Z,39.10
2023-04-09T18:34:47.260Z,36.92
2023-04-09T18:37:17.574Z,37.88
2023-04-09T18:39:46.327Z,36.78
2023-04-09T18:42:19.395Z,36.63
2023-04-09T18:44:50.328Z,34.08
2023-04-09T18:47:18.718Z,33.63
2023-04-09T18:49:46.887Z,31.27
2023-04-09T18:52:18.327Z,35.13
2023-04-09T18:54:53.065Z,75.47
2023-04-09T18:57:20.710Z,68.50
2023-04-09T18:59:49.420Z,38.55
2023-04-09T19:02:17.282Z,37.20
2023-04-09T19:04:47.500Z,40.45
2023-04-09T19:07:15.538Z,43.15
2023-04-09T19:09:46.138Z,41.75
2023-04-09T19:12:15.248Z,47.30
2023-04-09T19:14:43.273Z,41.03
2023-04-09T19:17:13.269Z,41.38
2023-04-09T19:19:40.827Z,36.78
2023-04-09T19:22:09.736Z,34.38
2023-04-09T19:24:37.616Z,36.42
2023-04-09T19:27:09.768Z,37.05
2023-04-09T19:29:38.035Z,33.95
2023-04-09T19:32:12.174Z,40.97
2023-04-09T19:34:42.170Z,43.28
2023-04-09T19:37:09.754Z,34.45
2023-04-09T19:39:37.380Z,25.92
2023-04-09T19:42:06.383Z,24.30
2023-04-09T19:44:40.621Z,22.73
2023-04-09T19:49:38.677Z,19.10
2023-04-09T19:52:06.820Z,26.20
2023-04-09T19:54:38.629Z,121.90
2023-04-09T19:57:14.623Z,88.63
2023-04-09T19:59:44.256Z,42.47
2023-04-09T20:02:18.781Z,43.17
2023-04-09T20:07:14.214Z,21.77
2023-04-09T20:09:41.759Z,20.67
2023-04-09T20:12:11.324Z,20.92
2023-04-09T20:14:39.063Z,18.17
2023-04-09T20:17:12.557Z,17.13
2023-04-09T20:19:41.410Z,15.65
2023-04-09T20:22:09.203Z,20.42
2023-04-09T20:24:43.357Z,36.10
2023-04-09T20:27:10.917Z,47.97
2023-04-09T20:29:38.496Z,34.97
2023-04-09T20:32:13.510Z,26.52
2023-04-09T20:34:41.984Z,24.27
2023-04-09T20:37:09.883Z,23.70
2023-04-09T20:39:39.026Z,26.33
2023-04-09T20:42:06.781Z,29.25
2023-04-09T20:44:34.373Z,53.53
2023-04-09T20:47:02.222Z,48.90
2023-04-09T20:49:32.092Z,39.85
2023-04-09T20:52:08.140Z,38.83
2023-04-09T20:54:37.963Z,33.40
2023-04-09T20:57:05.594Z,22.55
2023-04-09T20:59:34.853Z,18.63
2023-04-09T21:02:03.644Z,22.33
2023-04-09T21:04:32.929Z,16.55
2023-04-09T21:07:01.675Z,19.63
2023-04-09T21:09:29.486Z,22.52
2023-04-09T21:12:02.981Z,21.50
2023-04-09T21:14:31.840Z,17.52
2023-04-09T21:17:00.081Z,15.85
2023-04-09T21:19:28.029Z,14.65
2023-04-09T21:22:00.315Z,18.40
2023-04-09T21:24:28.123Z,18.33
2023-04-09T21:26:55.690Z,20.75
2023-04-09T21:29:23.641Z,30.35
2023-04-09T21:31:51.710Z,29.02
2023-04-09T21:34:19.259Z,25.48
2023-04-09T21:36:46.943Z,27.63
2023-04-09T21:39:16.044Z,26.42
2023-04-09T21:41:43.710Z,18.05
2023-04-09T21:44:11.990Z,21.42
2023-04-09T21:46:40.126Z,38.55
2023-04-09T21:49:07.817Z,31.67
2023-04-09T21:51:35.893Z,34.08
2023-04-09T21:54:04.306Z,27.30
2023-04-09T21:56:34.423Z,25.15
2023-04-09T21:59:05.100Z,38.45
2023-04-09T22:01:32.744Z,50.17
2023-04-09T22:04:05.291Z,26.20
2023-04-09T22:06:34.800Z,19.35
2023-04-09T22:09:03.391Z,19.23
2023-04-09T22:11:32.906Z,18.05
2023-04-09T22:14:00.917Z,19.65
2023-04-09T22:16:28.685Z,21.10
2023-04-09T22:18:56.767Z,24.88
2023-04-09T22:21:29.930Z,19.80
2023-04-09T22:23:59.180Z,20.65
2023-04-09T22:26:26.934Z,21.38
2023-04-09T22:28:56.572Z,19.67
2023-04-09T22:31:26.527Z,17.92
2023-04-09T22:33:54.377Z,20.60
2023-04-09T22:36:23.225Z,19.45
2023-04-09T22:38:51.178Z,22.85
2023-04-09T22:41:19.084Z,25.27
2023-04-09T22:43:46.799Z,24.08
2023-04-09T22:46:16.152Z,21.77
2023-04-09T22:48:45.112Z,17.60
2023-04-09T22:51:13.098Z,18.15
2023-04-09T22:53:42.528Z,17.73
2023-04-09T22:56:10.352Z,17.42
2023-04-09T22:58:38.364Z,18.55
2023-04-09T23:01:06.582Z,20.63
2023-04-09T23:03:35.861Z,24.48
2023-04-09T23:06:04.137Z,23.23
2023-04-09T23:08:31.729Z,25.13
2023-04-09T23:11:00.238Z,23.10
2023-04-09T23:13:33.080Z,23.13
2023-04-09T23:16:03.898Z,22.52
2023-04-09T23:21:05.004Z,17.92
2023-04-09T23:23:32.913Z,17.58
2023-04-09T23:26:01.070Z,17.02
2023-04-09T23:28:29.349Z,16.13
2023-04-09T23:30:57.102Z,16.27
2023-04-09T23:33:25.271Z,19.00
2023-04-09T23:35:53.039Z,17.30
2023-04-09T23:38:22.465Z,18.67
2023-04-09T23:40:50.655Z,18.15
2023-04-09T23:43:18.356Z,22.50
2023-04-09T23:45:47.874Z,18.90
2023-04-09T23:48:15.541Z,19.65
2023-04-09T23:50:45.452Z,47.03
2023-04-09T23:53:13.197Z,28.70
2023-04-09T23:55:42.149Z,17.60
2023-04-09T23:58:11.602Z,20.70
